sensor_id;sensor_type;location;lat;lon;timestamp;temperature;humidity
23544;DHT22;11950;51.230;4.012;2023-05-25T00:00:03;13.80;99.90
23544;DHT22;11950;51.230;4.012;2023-05-25T00:02:31;13.80;99.90
23544;DHT22;11950;51.230;4.012;2023-05-25T00:04:58;13.80;99.90
23544;DHT22;11950;51.230;4.012;2023-05-25T00:07:26;13.80;99.90
23544;DHT22;11950;51.230;4.012;2023-05-25T00:09:52;13.80;99.90
23544;DHT22;11950;51.230;4.012;2023-05-25T00:12:18;13.70;99.90
23544;DHT22;11950;51.230;4.012;2023-05-25T00:14:45;13.70;99.90
23544;DHT22;11950;51.230;4.012;2023-05-25T00:17:11;13.60;99.90
23544;DHT22;11950;51.230;4.012;2023-05-25T00:19:37;13.60;99.90
23544;DHT22;11950;51.230;4.012;2023-05-25T00:22:08;13.50;99.90
23544;DHT22;11950;51.230;4.012;2023-05-25T00:24:35;13.40;99.90
23544;DHT22;11950;51.230;4.012;2023-05-25T00:27:02;13.40;99.90
23544;DHT22;11950;51.230;4.012;2023-05-25T00:29:28;13.30;99.90
23544;DHT22;11950;51.230;4.012;2023-05-25T00:31:55;13.20;99.90
23544;DHT22;11950;51.230;4.012;2023-05-25T00:34:21;13.20;99.90
23544;DHT22;11950;51.230;4.012;2023-05-25T00:36:48;13.20;99.90
23544;DHT22;11950;51.230;4.012;2023-05-25T00:39:15;13.10;99.90
23544;DHT22;11950;51.230;4.012;2023-05-25T00:41:43;13.10;99.90
23544;DHT22;11950;51.230;4.012;2023-05-25T00:44:13;13.00;99.90
23544;DHT22;11950;51.230;4.012;2023-05-25T00:46:53;12.90;99.90
23544;DHT22;11950;51.230;4.012;2023-05-25T00:49:20;12.80;99.90
23544;DHT22;11950;51.230;4.012;2023-05-25T00:51:48;12.80;99.90
23544;DHT22;11950;51.230;4.012;2023-05-25T00:54:16;12.80;99.90
23544;DHT22;11950;51.230;4.012;2023-05-25T00:56:50;12.80;99.90
23544;DHT22;11950;51.230;4.012;2023-05-25T00:59:27;12.80;99.90
23544;DHT22;11950;51.230;4.012;2023-05-25T01:02:06;12.80;99.90
23544;DHT22;11950;51.230;4.012;2023-05-25T01:04:43;12.80;99.90
23544;DHT22;11950;51.230;4.012;2023-05-25T01:07:13;12.70;99.90
23544;DHT22;11950;51.230;4.012;2023-05-25T01:09:43;12.70;99.90
23544;DHT22;11950;51.230;4.012;2023-05-25T01:12:13;12.80;99.90
23544;DHT22;11950;51.230;4.012;2023-05-25T01:14:40;12.70;99.90
23544;DHT22;11950;51.230;4.012;2023-05-25T01:17:10;12.70;99.90
23544;DHT22;11950;51.230;4.012;2023-05-25T01:19:37;12.70;99.90
23544;DHT22;11950;51.230;4.012;2023-05-25T01:22:12;12.80;99.90
23544;DHT22;11950;51.230;4.012;2023-05-25T01:24:53;12.70;99.90
23544;DHT22;11950;51.230;4.012;2023-05-25T01:27:34;12.70;99.90
23544;DHT22;11950;51.230;4.012;2023-05-25T01:30:01;12.70;99.90
23544;DHT22;11950;51.230;4.012;2023-05-25T01:32:29;12.80;99.90
23544;DHT22;11950;51.230;4.012;2023-05-25T01:34:58;12.80;99.90
23544;DHT22;11950;51.230;4.012;2023-05-25T01:37:26;12.70;99.90
23544;DHT22;11950;51.230;4.012;2023-05-25T01:39:52;12.70;99.90
23544;DHT22;11950;51.230;4.012;2023-05-25T01:42:18;12.70;99.90
23544;DHT22;11950;51.230;4.012;2023-05-25T01:44:45;12.70;99.90
23544;DHT22;11950;51.230;4.012;2023-05-25T01:47:35;12.70;99.90
23544;DHT22;11950;51.230;4.012;2023-05-25T01:53:12;12.70;99.90
23544;DHT22;11950;51.230;4.012;2023-05-25T01:55:53;12.70;99.90
23544;DHT22;11950;51.230;4.012;2023-05-25T01:58:21;12.60;99.90
23544;DHT22;11950;51.230;4.012;2023-05-25T02:00:50;12.60;99.90
23544;DHT22;11950;51.230;4.012;2023-05-25T02:03:17;12.60;99.90
23544;DHT22;11950;51.230;4.012;2023-05-25T02:05:45;12.60;99.90
23544;DHT22;11950;51.230;4.012;2023-05-25T02:08:12;12.50;99.90
23544;DHT22;11950;51.230;4.012;2023-05-25T02:10:38;12.50;99.90
23544;DHT22;11950;51.230;4.012;2023-05-25T02:13:04;12.40;99.90
23544;DHT22;11950;51.230;4.012;2023-05-25T02:15:32;12.30;99.90
23544;DHT22;11950;51.230;4.012;2023-05-25T02:17:58;12.30;99.90
23544;DHT22;11950;51.230;4.012;2023-05-25T02:20:28;12.30;99.90
23544;DHT22;11950;51.230;4.012;2023-05-25T02:22:54;12.30;99.90
23544;DHT22;11950;51.230;4.012;2023-05-25T02:25:20;12.20;99.90
23544;DHT22;11950;51.230;4.012;2023-05-25T02:27:47;12.30;99.90
23544;DHT22;11950;51.230;4.012;2023-05-25T02:30:14;12.30;99.90
23544;DHT22;11950;51.230;4.012;2023-05-25T02:32:40;12.30;99.90
23544;DHT22;11950;51.230;4.012;2023-05-25T02:35:06;12.30;99.90
23544;DHT22;11950;51.230;4.012;2023-05-25T02:37:33;12.30;99.90
23544;DHT22;11950;51.230;4.012;2023-05-25T02:39:59;12.20;99.90
23544;DHT22;11950;51.230;4.012;2023-05-25T02:42:26;12.30;99.90
23544;DHT22;11950;51.230;4.012;2023-05-25T02:44:52;12.20;99.90
23544;DHT22;11950;51.230;4.012;2023-05-25T02:47:18;12.20;99.90
23544;DHT22;11950;51.230;4.012;2023-05-25T02:49:45;12.20;99.90
23544;DHT22;11950;51.230;4.012;2023-05-25T02:52:11;12.10;99.90
23544;DHT22;11950;51.230;4.012;2023-05-25T02:54:38;12.10;99.90
23544;DHT22;11950;51.230;4.012;2023-05-25T02:57:06;12.10;99.90
23544;DHT22;11950;51.230;4.012;2023-05-25T02:59:33;12.00;99.90
23544;DHT22;11950;51.230;4.012;2023-05-25T03:01:59;12.00;99.90
23544;DHT22;11950;51.230;4.012;2023-05-25T03:04:26;12.00;99.90
23544;DHT22;11950;51.230;4.012;2023-05-25T03:06:53;12.00;99.90
23544;DHT22;11950;51.230;4.012;2023-05-25T03:09:19;11.80;99.90
23544;DHT22;11950;51.230;4.012;2023-05-25T03:11:48;11.80;99.90
23544;DHT22;11950;51.230;4.012;2023-05-25T03:14:17;11.80;99.90
23544;DHT22;11950;51.230;4.012;2023-05-25T03:16:50;11.70;99.90
23544;DHT22;11950;51.230;4.012;2023-05-25T03:19:16;11.70;99.90
23544;DHT22;11950;51.230;4.012;2023-05-25T03:21:45;11.70;99.90
23544;DHT22;11950;51.230;4.012;2023-05-25T03:24:11;11.70;99.90
23544;DHT22;11950;51.230;4.012;2023-05-25T03:26:38;11.70;99.90
23544;DHT22;11950;51.230;4.012;2023-05-25T03:29:05;11.60;99.90
23544;DHT22;11950;51.230;4.012;2023-05-25T03:31:32;11.50;99.90
23544;DHT22;11950;51.230;4.012;2023-05-25T03:33:58;11.50;99.90
23544;DHT22;11950;51.230;4.012;2023-05-25T03:36:24;11.60;99.90
23544;DHT22;11950;51.230;4.012;2023-05-25T03:38:55;11.60;99.90
23544;DHT22;11950;51.230;4.012;2023-05-25T03:41:22;11.60;99.90
23544;DHT22;11950;51.230;4.012;2023-05-25T03:43:48;11.60;99.90
23544;DHT22;11950;51.230;4.012;2023-05-25T03:46:15;11.60;99.90
23544;DHT22;11950;51.230;4.012;2023-05-25T03:48:42;11.60;99.90
23544;DHT22;11950;51.230;4.012;2023-05-25T03:51:09;11.60;99.90
23544;DHT22;11950;51.230;4.012;2023-05-25T03:53:35;11.60;99.90
23544;DHT22;11950;51.230;4.012;2023-05-25T03:56:01;11.60;99.90
23544;DHT22;11950;51.230;4.012;2023-05-25T03:58:27;11.60;99.90
23544;DHT22;11950;51.230;4.012;2023-05-25T04:00:54;11.60;99.90
23544;DHT22;11950;51.230;4.012;2023-05-25T04:03:21;11.60;99.90
23544;DHT22;11950;51.230;4.012;2023-05-25T04:05:47;11.50;99.90
23544;DHT22;11950;51.230;4.012;2023-05-25T04:08:15;11.60;99.90
23544;DHT22;11950;51.230;4.012;2023-05-25T04:10:47;11.60;99.90
23544;DHT22;11950;51.230;4.012;2023-05-25T04:13:13;11.60;99.90
23544;DHT22;11950;51.230;4.012;2023-05-25T04:15:39;11.50;99.90
23544;DHT22;11950;51.230;4.012;2023-05-25T04:18:10;11.50;99.90
23544;DHT22;11950;51.230;4.012;2023-05-25T04:20:36;11.50;99.90
23544;DHT22;11950;51.230;4.012;2023-05-25T04:23:04;11.50;99.90
23544;DHT22;11950;51.230;4.012;2023-05-25T04:25:32;11.50;99.90
23544;DHT22;11950;51.230;4.012;2023-05-25T04:27:59;11.60;99.90
23544;DHT22;11950;51.230;4.012;2023-05-25T04:30:45;11.60;99.90
23544;DHT22;11950;51.230;4.012;2023-05-25T04:33:25;11.60;99.90
23544;DHT22;11950;51.230;4.012;2023-05-25T04:36:14;11.60;99.90
23544;DHT22;11950;51.230;4.012;2023-05-25T04:38:40;11.60;99.90
23544;DHT22;11950;51.230;4.012;2023-05-25T04:41:07;11.60;99.90
23544;DHT22;11950;51.230;4.012;2023-05-25T04:43:35;11.60;99.90
23544;DHT22;11950;51.230;4.012;2023-05-25T04:46:02;11.70;99.90
23544;DHT22;11950;51.230;4.012;2023-05-25T04:48:29;11.70;99.90
23544;DHT22;11950;51.230;4.012;2023-05-25T04:50:59;11.70;99.90
23544;DHT22;11950;51.230;4.012;2023-05-25T04:53:29;11.80;99.90
23544;DHT22;11950;51.230;4.012;2023-05-25T04:55:57;11.90;99.90
23544;DHT22;11950;51.230;4.012;2023-05-25T04:58:24;11.90;99.90
23544;DHT22;11950;51.230;4.012;2023-05-25T05:00:50;12.00;99.90
23544;DHT22;11950;51.230;4.012;2023-05-25T05:03:16;12.00;99.90
23544;DHT22;11950;51.230;4.012;2023-05-25T05:05:43;12.10;99.90
23544;DHT22;11950;51.230;4.012;2023-05-25T05:08:14;12.20;99.90
23544;DHT22;11950;51.230;4.012;2023-05-25T05:10:42;12.30;99.90
23544;DHT22;11950;51.230;4.012;2023-05-25T05:13:08;12.40;99.90
23544;DHT22;11950;51.230;4.012;2023-05-25T05:15:37;12.50;99.90
23544;DHT22;11950;51.230;4.012;2023-05-25T05:18:03;12.60;99.90
23544;DHT22;11950;51.230;4.012;2023-05-25T05:20:30;12.60;99.90
23544;DHT22;11950;51.230;4.012;2023-05-25T05:22:56;12.70;99.90
23544;DHT22;11950;51.230;4.012;2023-05-25T05:25:23;12.80;99.90
23544;DHT22;11950;51.230;4.012;2023-05-25T05:27:49;12.80;99.90
23544;DHT22;11950;51.230;4.012;2023-05-25T05:30:22;12.90;99.90
23544;DHT22;11950;51.230;4.012;2023-05-25T05:32:48;13.00;99.90
23544;DHT22;11950;51.230;4.012;2023-05-25T05:35:16;13.00;99.90
23544;DHT22;11950;51.230;4.012;2023-05-25T05:37:45;13.00;99.90
23544;DHT22;11950;51.230;4.012;2023-05-25T05:40:13;13.10;99.90
23544;DHT22;11950;51.230;4.012;2023-05-25T05:42:41;13.20;99.90
23544;DHT22;11950;51.230;4.012;2023-05-25T05:45:09;13.30;99.90
23544;DHT22;11950;51.230;4.012;2023-05-25T05:47:35;13.40;99.90
23544;DHT22;11950;51.230;4.012;2023-05-25T05:50:01;13.50;99.90
23544;DHT22;11950;51.230;4.012;2023-05-25T05:52:29;13.50;99.90
23544;DHT22;11950;51.230;4.012;2023-05-25T05:54:56;13.60;99.90
23544;DHT22;11950;51.230;4.012;2023-05-25T05:57:22;13.70;99.90
23544;DHT22;11950;51.230;4.012;2023-05-25T05:59:49;13.80;99.90
23544;DHT22;11950;51.230;4.012;2023-05-25T06:02:15;13.90;99.90
23544;DHT22;11950;51.230;4.012;2023-05-25T06:04:42;13.90;99.90
23544;DHT22;11950;51.230;4.012;2023-05-25T06:07:08;14.00;99.90
23544;DHT22;11950;51.230;4.012;2023-05-25T06:09:35;14.00;99.90
23544;DHT22;11950;51.230;4.012;2023-05-25T06:12:02;14.10;99.90
23544;DHT22;11950;51.230;4.012;2023-05-25T06:14:29;14.20;99.90
23544;DHT22;11950;51.230;4.012;2023-05-25T06:16:59;14.30;99.90
23544;DHT22;11950;51.230;4.012;2023-05-25T06:19:26;14.30;99.90
23544;DHT22;11950;51.230;4.012;2023-05-25T06:21:52;14.40;99.90
23544;DHT22;11950;51.230;4.012;2023-05-25T06:24:20;14.60;99.90
23544;DHT22;11950;51.230;4.012;2023-05-25T06:26:46;14.70;99.90
23544;DHT22;11950;51.230;4.012;2023-05-25T06:29:15;14.80;99.90
23544;DHT22;11950;51.230;4.012;2023-05-25T06:31:41;14.90;99.90
23544;DHT22;11950;51.230;4.012;2023-05-25T06:34:07;15.00;99.90
23544;DHT22;11950;51.230;4.012;2023-05-25T06:36:34;15.20;99.90
23544;DHT22;11950;51.230;4.012;2023-05-25T06:39:00;15.30;99.90
23544;DHT22;11950;51.230;4.012;2023-05-25T06:41:26;15.40;99.90
23544;DHT22;11950;51.230;4.012;2023-05-25T06:43:55;15.50;99.90
23544;DHT22;11950;51.230;4.012;2023-05-25T06:46:28;15.50;99.90
23544;DHT22;11950;51.230;4.012;2023-05-25T06:49:01;15.60;99.90
23544;DHT22;11950;51.230;4.012;2023-05-25T06:51:27;15.70;99.90
23544;DHT22;11950;51.230;4.012;2023-05-25T06:53:54;15.70;99.90
23544;DHT22;11950;51.230;4.012;2023-05-25T06:56:21;15.80;99.90
23544;DHT22;11950;51.230;4.012;2023-05-25T06:58:48;15.80;99.90
23544;DHT22;11950;51.230;4.012;2023-05-25T07:01:15;15.80;99.90
23544;DHT22;11950;51.230;4.012;2023-05-25T07:03:42;15.80;99.90
23544;DHT22;11950;51.230;4.012;2023-05-25T07:06:08;15.90;99.90
23544;DHT22;11950;51.230;4.012;2023-05-25T07:08:37;15.90;99.90
23544;DHT22;11950;51.230;4.012;2023-05-25T07:11:03;16.00;99.90
23544;DHT22;11950;51.230;4.012;2023-05-25T07:13:30;16.00;99.90
23544;DHT22;11950;51.230;4.012;2023-05-25T07:15:56;16.00;99.90
23544;DHT22;11950;51.230;4.012;2023-05-25T07:18:22;16.00;99.90
23544;DHT22;11950;51.230;4.012;2023-05-25T07:20:48;16.10;99.90
23544;DHT22;11950;51.230;4.012;2023-05-25T07:23:14;16.10;99.90
23544;DHT22;11950;51.230;4.012;2023-05-25T07:25:41;16.10;99.90
23544;DHT22;11950;51.230;4.012;2023-05-25T07:28:07;16.10;99.90
23544;DHT22;11950;51.230;4.012;2023-05-25T07:30:33;16.20;99.90
23544;DHT22;11950;51.230;4.012;2023-05-25T07:33:00;16.20;99.90
23544;DHT22;11950;51.230;4.012;2023-05-25T07:35:27;16.30;99.90
23544;DHT22;11950;51.230;4.012;2023-05-25T07:38:00;16.40;99.90
23544;DHT22;11950;51.230;4.012;2023-05-25T07:40:27;16.50;99.90
23544;DHT22;11950;51.230;4.012;2023-05-25T07:42:53;16.60;99.90
23544;DHT22;11950;51.230;4.012;2023-05-25T07:45:19;16.70;99.90
23544;DHT22;11950;51.230;4.012;2023-05-25T07:47:46;16.80;99.90
23544;DHT22;11950;51.230;4.012;2023-05-25T07:50:13;16.80;99.90
23544;DHT22;11950;51.230;4.012;2023-05-25T07:52:40;16.90;99.90
23544;DHT22;11950;51.230;4.012;2023-05-25T07:55:07;17.00;99.90
23544;DHT22;11950;51.230;4.012;2023-05-25T07:57:34;17.00;99.90
23544;DHT22;11950;51.230;4.012;2023-05-25T08:00:01;17.20;99.90
23544;DHT22;11950;51.230;4.012;2023-05-25T08:02:27;17.40;99.90
23544;DHT22;11950;51.230;4.012;2023-05-25T08:04:53;17.50;99.90
23544;DHT22;11950;51.230;4.012;2023-05-25T08:07:19;17.50;99.90
23544;DHT22;11950;51.230;4.012;2023-05-25T08:09:46;17.60;99.90
23544;DHT22;11950;51.230;4.012;2023-05-25T08:12:12;17.60;99.90
23544;DHT22;11950;51.230;4.012;2023-05-25T08:14:38;17.70;99.90
23544;DHT22;11950;51.230;4.012;2023-05-25T08:17:05;17.70;99.90
23544;DHT22;11950;51.230;4.012;2023-05-25T08:19:32;17.70;99.90
23544;DHT22;11950;51.230;4.012;2023-05-25T08:21:58;17.60;99.90
23544;DHT22;11950;51.230;4.012;2023-05-25T08:24:24;17.60;99.90
23544;DHT22;11950;51.230;4.012;2023-05-25T08:26:51;17.70;99.90
23544;DHT22;11950;51.230;4.012;2023-05-25T08:29:17;17.80;99.90
23544;DHT22;11950;51.230;4.012;2023-05-25T08:31:43;17.80;99.90
23544;DHT22;11950;51.230;4.012;2023-05-25T08:34:14;17.80;99.90
23544;DHT22;11950;51.230;4.012;2023-05-25T08:36:41;17.80;99.90
23544;DHT22;11950;51.230;4.012;2023-05-25T08:39:08;17.70;99.90
23544;DHT22;11950;51.230;4.012;2023-05-25T08:41:36;17.80;99.90
23544;DHT22;11950;51.230;4.012;2023-05-25T08:44:05;17.90;99.90
23544;DHT22;11950;51.230;4.012;2023-05-25T08:46:33;18.00;99.90
23544;DHT22;11950;51.230;4.012;2023-05-25T08:49:10;18.10;99.90
23544;DHT22;11950;51.230;4.012;2023-05-25T08:51:39;18.20;99.90
23544;DHT22;11950;51.230;4.012;2023-05-25T08:54:08;18.40;99.90
23544;DHT22;11950;51.230;4.012;2023-05-25T09:02:13;18.80;99.90
23544;DHT22;11950;51.230;4.012;2023-05-25T09:04:42;18.90;99.90
23544;DHT22;11950;51.230;4.012;2023-05-25T09:07:09;19.00;99.90
23544;DHT22;11950;51.230;4.012;2023-05-25T09:09:37;19.00;99.90
23544;DHT22;11950;51.230;4.012;2023-05-25T09:12:04;19.00;99.90
23544;DHT22;11950;51.230;4.012;2023-05-25T09:14:32;19.10;99.90
23544;DHT22;11950;51.230;4.012;2023-05-25T09:17:00;19.10;99.90
23544;DHT22;11950;51.230;4.012;2023-05-25T09:19:26;19.10;99.90
23544;DHT22;11950;51.230;4.012;2023-05-25T09:21:52;19.10;99.90
23544;DHT22;11950;51.230;4.012;2023-05-25T09:24:19;19.00;99.90
23544;DHT22;11950;51.230;4.012;2023-05-25T09:26:47;18.90;99.90
23544;DHT22;11950;51.230;4.012;2023-05-25T09:29:14;19.00;99.90
23544;DHT22;11950;51.230;4.012;2023-05-25T09:31:42;18.90;99.90
23544;DHT22;11950;51.230;4.012;2023-05-25T09:34:12;18.80;99.90
23544;DHT22;11950;51.230;4.012;2023-05-25T09:36:40;18.80;99.90
23544;DHT22;11950;51.230;4.012;2023-05-25T09:39:10;18.70;99.90
23544;DHT22;11950;51.230;4.012;2023-05-25T09:41:40;18.70;99.90
23544;DHT22;11950;51.230;4.012;2023-05-25T09:44:06;18.70;99.90
23544;DHT22;11950;51.230;4.012;2023-05-25T09:46:33;18.80;99.90
23544;DHT22;11950;51.230;4.012;2023-05-25T09:49:03;18.90;99.90
23544;DHT22;11950;51.230;4.012;2023-05-25T09:51:30;18.90;99.90
23544;DHT22;11950;51.230;4.012;2023-05-25T09:54:02;19.00;99.90
23544;DHT22;11950;51.230;4.012;2023-05-25T09:56:31;19.00;99.90
23544;DHT22;11950;51.230;4.012;2023-05-25T09:58:58;19.00;99.90
23544;DHT22;11950;51.230;4.012;2023-05-25T10:01:24;19.00;99.90
23544;DHT22;11950;51.230;4.012;2023-05-25T10:03:52;19.00;99.90
23544;DHT22;11950;51.230;4.012;2023-05-25T10:06:22;19.00;99.90
23544;DHT22;11950;51.230;4.012;2023-05-25T10:08:48;19.00;99.90
23544;DHT22;11950;51.230;4.012;2023-05-25T10:11:15;19.10;99.90
23544;DHT22;11950;51.230;4.012;2023-05-25T10:13:45;19.10;99.90
23544;DHT22;11950;51.230;4.012;2023-05-25T10:16:15;19.00;99.90
23544;DHT22;11950;51.230;4.012;2023-05-25T10:21:10;19.10;99.90
23544;DHT22;11950;51.230;4.012;2023-05-25T10:23:39;19.20;99.90
23544;DHT22;11950;51.230;4.012;2023-05-25T10:26:15;19.30;99.90
23544;DHT22;11950;51.230;4.012;2023-05-25T10:28:43;19.40;99.90
23544;DHT22;11950;51.230;4.012;2023-05-25T10:31:11;19.50;99.90
23544;DHT22;11950;51.230;4.012;2023-05-25T10:33:38;19.60;99.90
23544;DHT22;11950;51.230;4.012;2023-05-25T10:36:05;19.50;99.90
23544;DHT22;11950;51.230;4.012;2023-05-25T10:38:32;19.50;99.90
23544;DHT22;11950;51.230;4.012;2023-05-25T10:40:59;19.40;99.90
23544;DHT22;11950;51.230;4.012;2023-05-25T10:43:27;19.40;99.90
23544;DHT22;11950;51.230;4.012;2023-05-25T10:45:54;19.50;99.90
23544;DHT22;11950;51.230;4.012;2023-05-25T10:48:21;19.50;99.90
23544;DHT22;11950;51.230;4.012;2023-05-25T10:50:51;19.50;99.90
23544;DHT22;11950;51.230;4.012;2023-05-25T10:53:19;19.60;99.90
23544;DHT22;11950;51.230;4.012;2023-05-25T10:58:19;19.70;99.90
23544;DHT22;11950;51.230;4.012;2023-05-25T11:01:05;19.70;99.90
23544;DHT22;11950;51.230;4.012;2023-05-25T11:06:10;19.60;99.90
23544;DHT22;11950;51.230;4.012;2023-05-25T11:08:55;19.60;99.90
23544;DHT22;11950;51.230;4.012;2023-05-25T11:17:12;19.50;99.90
23544;DHT22;11950;51.230;4.012;2023-05-25T11:19:49;19.50;99.90
23544;DHT22;11950;51.230;4.012;2023-05-25T11:22:19;19.50;99.90
23544;DHT22;11950;51.230;4.012;2023-05-25T11:27:12;19.50;99.90
23544;DHT22;11950;51.230;4.012;2023-05-25T11:29:39;19.40;99.90
23544;DHT22;11950;51.230;4.012;2023-05-25T11:32:13;19.40;99.90
23544;DHT22;11950;51.230;4.012;2023-05-25T11:34:39;19.40;99.90
23544;DHT22;11950;51.230;4.012;2023-05-25T11:37:16;19.40;99.90
23544;DHT22;11950;51.230;4.012;2023-05-25T11:39:55;19.40;99.90
23544;DHT22;11950;51.230;4.012;2023-05-25T11:42:22;19.50;99.90
23544;DHT22;11950;51.230;4.012;2023-05-25T11:44:49;19.50;99.90
23544;DHT22;11950;51.230;4.012;2023-05-25T11:47:18;19.50;99.90
23544;DHT22;11950;51.230;4.012;2023-05-25T11:49:47;19.40;99.90
23544;DHT22;11950;51.230;4.012;2023-05-25T11:52:16;19.50;99.90
23544;DHT22;11950;51.230;4.012;2023-05-25T11:54:42;19.50;99.90
23544;DHT22;11950;51.230;4.012;2023-05-25T11:57:20;19.50;99.90
23544;DHT22;11950;51.230;4.012;2023-05-25T11:59:56;19.60;99.90
23544;DHT22;11950;51.230;4.012;2023-05-25T12:02:26;19.60;99.90
23544;DHT22;11950;51.230;4.012;2023-05-25T12:04:57;19.60;99.90
23544;DHT22;11950;51.230;4.012;2023-05-25T12:07:25;19.60;99.90
23544;DHT22;11950;51.230;4.012;2023-05-25T12:10:03;19.60;99.90
23544;DHT22;11950;51.230;4.012;2023-05-25T12:12:29;19.60;99.90
23544;DHT22;11950;51.230;4.012;2023-05-25T12:15:02;19.50;99.90
23544;DHT22;11950;51.230;4.012;2023-05-25T12:17:28;19.50;99.90
23544;DHT22;11950;51.230;4.012;2023-05-25T12:19:55;19.50;99.90
23544;DHT22;11950;51.230;4.012;2023-05-25T12:22:21;19.60;99.90
23544;DHT22;11950;51.230;4.012;2023-05-25T12:24:48;19.50;99.90
23544;DHT22;11950;51.230;4.012;2023-05-25T12:27:19;19.50;99.90
23544;DHT22;11950;51.230;4.012;2023-05-25T12:29:46;19.60;99.90
23544;DHT22;11950;51.230;4.012;2023-05-25T12:32:12;19.60;99.90
23544;DHT22;11950;51.230;4.012;2023-05-25T12:34:38;19.60;99.90
23544;DHT22;11950;51.230;4.012;2023-05-25T12:37:05;19.60;99.90
23544;DHT22;11950;51.230;4.012;2023-05-25T12:39:42;19.70;99.90
23544;DHT22;11950;51.230;4.012;2023-05-25T12:42:16;19.70;99.90
23544;DHT22;11950;51.230;4.012;2023-05-25T12:44:43;19.80;99.90
23544;DHT22;11950;51.230;4.012;2023-05-25T12:47:21;19.90;99.90
23544;DHT22;11950;51.230;4.012;2023-05-25T12:49:52;20.00;99.90
23544;DHT22;11950;51.230;4.012;2023-05-25T12:52:32;20.00;99.90
23544;DHT22;11950;51.230;4.012;2023-05-25T12:55:17;20.00;99.90
23544;DHT22;11950;51.230;4.012;2023-05-25T12:57:43;20.00;99.90
23544;DHT22;11950;51.230;4.012;2023-05-25T13:00:10;19.90;99.90
23544;DHT22;11950;51.230;4.012;2023-05-25T13:02:36;19.90;99.90
23544;DHT22;11950;51.230;4.012;2023-05-25T13:05:02;19.90;99.90
23544;DHT22;11950;51.230;4.012;2023-05-25T13:07:29;20.00;99.90
23544;DHT22;11950;51.230;4.012;2023-05-25T13:09:55;20.10;99.90
23544;DHT22;11950;51.230;4.012;2023-05-25T13:12:21;20.10;99.90
23544;DHT22;11950;51.230;4.012;2023-05-25T13:14:47;20.10;99.90
23544;DHT22;11950;51.230;4.012;2023-05-25T13:17:14;20.10;99.90
23544;DHT22;11950;51.230;4.012;2023-05-25T13:19:40;20.20;99.90
23544;DHT22;11950;51.230;4.012;2023-05-25T13:22:06;20.20;99.90
23544;DHT22;11950;51.230;4.012;2023-05-25T13:24:32;20.30;99.90
23544;DHT22;11950;51.230;4.012;2023-05-25T13:26:59;20.30;99.90
23544;DHT22;11950;51.230;4.012;2023-05-25T13:29:26;20.30;99.90
23544;DHT22;11950;51.230;4.012;2023-05-25T13:31:52;20.20;99.90
23544;DHT22;11950;51.230;4.012;2023-05-25T13:34:18;20.20;99.90
23544;DHT22;11950;51.230;4.012;2023-05-25T13:36:44;20.10;99.90
23544;DHT22;11950;51.230;4.012;2023-05-25T13:39:11;20.10;99.90
23544;DHT22;11950;51.230;4.012;2023-05-25T13:41:38;20.20;99.90
23544;DHT22;11950;51.230;4.012;2023-05-25T13:44:05;20.30;99.90
23544;DHT22;11950;51.230;4.012;2023-05-25T13:46:31;20.40;99.90
23544;DHT22;11950;51.230;4.012;2023-05-25T13:48:57;20.40;99.90
23544;DHT22;11950;51.230;4.012;2023-05-25T13:51:24;20.30;99.90
23544;DHT22;11950;51.230;4.012;2023-05-25T13:53:51;20.30;99.90
23544;DHT22;11950;51.230;4.012;2023-05-25T13:56:18;20.30;99.90
23544;DHT22;11950;51.230;4.012;2023-05-25T13:58:44;20.30;99.90
23544;DHT22;11950;51.230;4.012;2023-05-25T14:01:11;20.30;99.90
23544;DHT22;11950;51.230;4.012;2023-05-25T14:03:37;20.30;99.90
23544;DHT22;11950;51.230;4.012;2023-05-25T14:06:04;20.30;99.90
23544;DHT22;11950;51.230;4.012;2023-05-25T14:08:31;20.40;99.90
23544;DHT22;11950;51.230;4.012;2023-05-25T14:10:57;20.50;99.90
23544;DHT22;11950;51.230;4.012;2023-05-25T14:13:23;20.50;99.90
23544;DHT22;11950;51.230;4.012;2023-05-25T14:15:49;20.50;99.90
23544;DHT22;11950;51.230;4.012;2023-05-25T14:18:16;20.50;99.90
23544;DHT22;11950;51.230;4.012;2023-05-25T14:20:42;20.50;99.90
23544;DHT22;11950;51.230;4.012;2023-05-25T14:23:09;20.50;99.90
23544;DHT22;11950;51.230;4.012;2023-05-25T14:25:35;20.50;99.90
23544;DHT22;11950;51.230;4.012;2023-05-25T14:28:01;20.60;99.90
23544;DHT22;11950;51.230;4.012;2023-05-25T14:30:28;20.60;99.90
23544;DHT22;11950;51.230;4.012;2023-05-25T14:32:54;20.70;99.90
23544;DHT22;11950;51.230;4.012;2023-05-25T14:35:20;20.70;99.90
23544;DHT22;11950;51.230;4.012;2023-05-25T14:37:46;20.60;99.90
23544;DHT22;11950;51.230;4.012;2023-05-25T14:40:13;20.60;99.90
23544;DHT22;11950;51.230;4.012;2023-05-25T14:42:39;20.70;99.90
23544;DHT22;11950;51.230;4.012;2023-05-25T14:45:06;20.70;99.90
23544;DHT22;11950;51.230;4.012;2023-05-25T14:47:32;20.80;99.90
23544;DHT22;11950;51.230;4.012;2023-05-25T14:49:58;20.80;99.90
23544;DHT22;11950;51.230;4.012;2023-05-25T14:52:24;20.70;99.90
23544;DHT22;11950;51.230;4.012;2023-05-25T14:54:51;20.70;99.90
23544;DHT22;11950;51.230;4.012;2023-05-25T14:57:17;20.80;99.90
23544;DHT22;11950;51.230;4.012;2023-05-25T14:59:43;20.90;99.90
23544;DHT22;11950;51.230;4.012;2023-05-25T15:02:09;21.00;99.90
23544;DHT22;11950;51.230;4.012;2023-05-25T15:04:35;21.10;99.90
23544;DHT22;11950;51.230;4.012;2023-05-25T15:07:02;21.00;99.90
23544;DHT22;11950;51.230;4.012;2023-05-25T15:09:28;20.90;99.90
23544;DHT22;11950;51.230;4.012;2023-05-25T15:11:58;20.80;99.90
23544;DHT22;11950;51.230;4.012;2023-05-25T15:14:24;20.70;99.90
23544;DHT22;11950;51.230;4.012;2023-05-25T15:16:51;20.60;99.90
23544;DHT22;11950;51.230;4.012;2023-05-25T15:19:17;20.60;99.90
23544;DHT22;11950;51.230;4.012;2023-05-25T15:21:44;20.60;99.90
23544;DHT22;11950;51.230;4.012;2023-05-25T15:24:11;20.70;99.90
23544;DHT22;11950;51.230;4.012;2023-05-25T15:26:42;20.70;99.90
23544;DHT22;11950;51.230;4.012;2023-05-25T15:29:08;20.70;99.90
23544;DHT22;11950;51.230;4.012;2023-05-25T15:31:34;20.60;99.90
23544;DHT22;11950;51.230;4.012;2023-05-25T15:34:01;20.60;99.90
23544;DHT22;11950;51.230;4.012;2023-05-25T15:36:27;20.60;99.90
23544;DHT22;11950;51.230;4.012;2023-05-25T15:38:53;20.60;99.90
23544;DHT22;11950;51.230;4.012;2023-05-25T15:41:20;20.60;99.90
23544;DHT22;11950;51.230;4.012;2023-05-25T15:43:51;20.40;99.90
23544;DHT22;11950;51.230;4.012;2023-05-25T15:46:19;20.40;99.90
23544;DHT22;11950;51.230;4.012;2023-05-25T15:48:45;20.30;99.90
23544;DHT22;11950;51.230;4.012;2023-05-25T15:51:11;20.20;99.90
23544;DHT22;11950;51.230;4.012;2023-05-25T15:53:37;20.20;99.90
23544;DHT22;11950;51.230;4.012;2023-05-25T15:56:04;20.20;99.90
23544;DHT22;11950;51.230;4.012;2023-05-25T15:58:30;20.20;99.90